ADDS METAR Data INFO
IDs: Format: Raw Decoded Include TAF

Data at: 0501 UTC 21 Feb 2018

KCPS 201453Z 18015G31KT 7SM RA BKN024 18/16 A2993 RMK AO2 RAB49 SLP132 6//// T01780161 50016 PNO $
KCPS 201353Z 17009G21KT 10SM BKN060 20/15 A2994 RMK AO2 PRESRR SLPNO T02000150 $
KCPS 201253Z 18016G28KT 10SM BKN090 20/14 A2991 RMK AO2 SLPNO T02000139 $
KCPS 201219Z 18016G28KT 10SM BKN090 21/14 A2989 RMK AO2 T02110139 $
KCPS 201153Z AUTO A2988 RMK AO2 SLPNO 7//// 51014 PWINO FZRANO TSNO
KCPS 201053Z AUTO A2988 RMK AO2 SLPNO PWINO FZRANO TSNO
KCPS 200953Z AUTO A2986 RMK AO2 SLPNO PWINO FZRANO TSNO
KCPS 200853Z AUTO A2984 RMK AO2 SLPNO 58014 PWINO FZRANO TSNO
KCPS 200753Z AUTO A2986 RMK AO2 SLPNO PWINO FZRANO TSNO
KCPS 200653Z AUTO A2987 RMK AO2 SLPNO PWINO FZRANO TSNO
KCPS 200553Z AUTO A2988 RMK AO2 SLPNO 50004 PWINO FZRANO TSNO
KCPS 200453Z AUTO A2989 RMK AO2 SLPNO PWINO FZRANO TSNO
KCPS 200353Z 18012G24KT 10SM SCT060 20/15 A2989 RMK AO2 SLP120 T02000150
KCPS 200253Z 17014G24KT 10SM SCT060 20/14 A2987 RMK AO2 SLP114 T02000139 50003
KCPS 200153Z COR 170121G24KT 10SM SCT060 20/14 A2987 RMK AO2 SLPNO $
KCPS 200053Z A2987 RMK AO2 SLPNO $
KCPS 192353Z 16009G17KT 10SM OVC035 20/14 A2986 RMK AO2 SLP111 6//// T02000139 55004 $
KCPS 192253Z 16007G20KT 10SM OVC035 20/14 A2985 RMK AO2 SLP107 T02000139 $
KCPS 192153Z COR 16009G14KT 7SM OVC035 19/14 A2986 RMK AO2 SLPNO $
KCPS 192053Z 00000KT A2987 RMK AO2 RAB1956E12 SLPNO 6//// 56004 PNO $
KCPS 191953Z A2988 RMK AO2 RAE1854 SLPNO PNO $
KCPS 191853Z 5SM -RA BR OVC090 A2986 RMK AO2 RAEMMB53 SLPNO P0000 $
KCPS 191753Z 17012G20KT 6SM -RA BR OVC090 16/14 A2989 RMK AO2 SLP120 P0005 60048 T01560139 10161 20144 58001 $
KCPS 191707Z 18011G19KT 5SM -RA BR FEW050 BKN075 OVC090 16/14 A2990 RMK AO2 P0002 T01560139